Silver City, NM

4:44 AM MST on December 11, 2019 (GMT -0700)
Grant County

Weather History for KSVC - November, 2019

Change the Weather History Date:

Saturday, November 16, 2019

  Actual Average (WUND) Record (WUND)
Temperature  
Mean Temperature 49 °F -  
Max Temperature 66 °F - - (-1)
Min Temperature 32 °F - - (-1)
Degree Days  
Heating Degree Days 16    
Moisture  
Dew Point 23 °F    
Average Humidity 40    
Maximum Humidity 69    
Minimum Humidity 15    
Precipitation  
Precipitation 0.00 in - - ()
Sea Level Pressure  
Sea Level Pressure 30.16 in    
Wind  
Wind Speed 8 mph (NW)    
Max Wind Speed 16 mph    
Max Gust Speed -    
Visibility 10 miles    
Events      
Averages and records for this station are not official NWS values.
T = Trace of Precipitation, MM = Missing Value Source: NWS Daily Summary

Daily Weather History Graph

Daily Weather History Graph

Search for Another Location

Airport or City:

Astronomy

Nov. 16, 2019 Rise Set
Actual Time 6:43 AM MST 5:11 PM MST
Civil Twilight 6:17 AM MST 5:37 PM MST
Nautical Twilight 5:47 AM MST 6:07 PM MST
Astronomical Twilight 5:18 AM MST 6:36 PM MST
Moon 8:52 PM MST (11/16) 10:34 AM MST (11/16)
Length of Visible Light 11h 20m
Length of Day
10h 27m
Waning Gibbous, 82% of the Moon is Illuminated
Nov 16
Waning Gibbous
Nov 19
Last Quarter
Nov 26
New
Dec 3
First Quarter
Dec 11
Full

Hourly Weather History & Observations

Time (MST) Temp. Windchill Dew Point Humidity Pressure Visibility Wind Dir Wind Speed Gust Speed Precip Events Conditions
12:15 AM 35.6 °F 29.2 °F 23.5 °F 62% 30.21 in 10.0 mi North 8.1 mph - N/A   Clear
12:35 AM 36.9 °F 30.1 °F 23.9 °F 59% 30.20 in 10.0 mi North 9.2 mph - N/A   Clear
12:55 AM 35.6 °F 29.9 °F 23.9 °F 62% 30.20 in 10.0 mi North 6.9 mph - N/A   Clear
1:15 AM 33.3 °F 25.7 °F 23.2 °F 67% 30.20 in 10.0 mi North 9.2 mph - N/A   Clear
1:55 AM 33.8 °F 27.7 °F 23.7 °F 67% 30.20 in 10.0 mi North 6.9 mph - N/A   Clear
2:15 AM 32.9 °F 26.7 °F 23.4 °F 68% 30.20 in 10.0 mi North 6.9 mph - N/A   Clear
2:35 AM 33.3 °F 25.7 °F 23.9 °F 69% 30.19 in 10.0 mi North 9.2 mph - N/A   Clear
2:55 AM 33.3 °F 25.7 °F 23.5 °F 68% 30.19 in 10.0 mi North 9.2 mph - N/A   Clear
3:15 AM 34.0 °F 26.6 °F 23.7 °F 66% 30.19 in 10.0 mi North 9.2 mph - N/A   Clear
3:35 AM 33.8 °F 26.4 °F 23.9 °F 67% 30.19 in 10.0 mi North 9.2 mph - N/A   Clear
3:55 AM 34.7 °F 28.1 °F 23.7 °F 64% 30.19 in 10.0 mi North 8.1 mph - N/A   Clear
4:15 AM 34.9 °F 27.7 °F 24.1 °F 65% 30.19 in 10.0 mi North 9.2 mph - N/A   Clear
4:35 AM 35.2 °F 28.1 °F 23.9 °F 63% 30.19 in 10.0 mi North 9.2 mph - N/A   Clear
4:55 AM 35.1 °F 27.9 °F 24.3 °F 65% 30.19 in 10.0 mi North 9.2 mph - N/A   Clear
5:15 AM 35.2 °F 28.1 °F 23.9 °F 63% 30.19 in 10.0 mi NNW 9.2 mph - N/A   Clear
5:35 AM 36.0 °F 29.0 °F 23.9 °F 62% 30.19 in 10.0 mi North 9.2 mph - N/A   Clear
5:55 AM 36.5 °F 30.3 °F 24.4 °F 62% 30.19 in 10.0 mi NNW 8.1 mph - N/A   Clear
6:15 AM 38.1 °F 32.3 °F 24.8 °F 59% 30.19 in 10.0 mi North 8.1 mph - N/A   Clear
6:35 AM 38.3 °F 32.5 °F 24.6 °F 58% 30.19 in 10.0 mi North 8.1 mph - N/A   Clear
6:55 AM 36.5 °F 30.3 °F 24.4 °F 62% 30.19 in 10.0 mi North 8.1 mph - N/A   Clear
7:15 AM 35.1 °F 30.1 °F 24.4 °F 65% 30.19 in 10.0 mi NNW 5.8 mph - N/A   Clear
7:35 AM 38.3 °F 33.2 °F 25.7 °F 61% 30.19 in 10.0 mi NNW 6.9 mph - N/A   Clear
7:55 AM 44.6 °F 42.2 °F 25.7 °F 48% 30.20 in 10.0 mi NNW 4.6 mph - N/A   Clear
8:15 AM 47.8 °F - 24.8 °F 41% 30.21 in 10.0 mi NNW 3.5 mph - N/A   Clear
8:35 AM 49.3 °F - 25.5 °F 40% 30.21 in 10.0 mi NNW 4.6 mph - N/A   Clear
8:55 AM 52.0 °F - 23.9 °F 34% 30.21 in 10.0 mi NW 4.6 mph - N/A   Clear
9:15 AM 54.1 °F - 23.9 °F 31% 30.20 in 10.0 mi Calm Calm - N/A   Clear
9:35 AM 56.3 °F - 23.2 °F 28% 30.20 in 10.0 mi Calm Calm - N/A   Clear
9:55 AM 57.6 °F - 22.5 °F 26% 30.20 in 10.0 mi Calm Calm - N/A   Clear
10:15 AM 58.6 °F - 20.8 °F 23% 30.20 in 10.0 mi West 3.5 mph - N/A   Clear
10:35 AM 60.3 °F - 18.7 °F 20% 30.18 in 10.0 mi Calm Calm - N/A   Clear
10:55 AM 61.2 °F - 18.0 °F 19% 30.17 in 10.0 mi West 4.6 mph - N/A   Clear
11:15 AM 62.1 °F - 21.0 °F 21% 30.16 in 10.0 mi South 5.8 mph - N/A   Clear
11:35 AM 62.2 °F - 22.5 °F 22% 30.16 in 10.0 mi SW 4.6 mph - N/A   Clear
11:55 AM 62.8 °F - 23.2 °F 22% 30.15 in 10.0 mi WSW 3.5 mph - N/A   Clear
12:15 PM 62.6 °F - 25.2 °F 24% 30.14 in 10.0 mi SSW 5.8 mph - N/A   Clear
12:35 PM 62.1 °F - 26.4 °F 26% 30.13 in 10.0 mi South 5.8 mph - N/A   Clear
1:15 PM 63.7 °F - 20.1 °F 19% 30.11 in 10.0 mi WNW 9.2 mph - N/A   Clear
1:35 PM 66.4 °F - 17.4 °F 15% 30.10 in 10.0 mi West 6.9 mph - N/A   Clear
1:55 PM 66.7 °F - 20.8 °F 17% 30.10 in 10.0 mi West 11.5 mph - N/A   Clear
2:35 PM 66.2 °F - 19.8 °F 17% 30.10 in 10.0 mi West 4.6 mph - N/A   Clear
2:55 PM 66.2 °F - 18.0 °F 16% 30.10 in 10.0 mi West 11.5 mph - N/A   Clear
3:15 PM 66.4 °F - 18.0 °F 16% 30.10 in 10.0 mi WNW 10.4 mph - N/A   Clear
3:35 PM 66.6 °F - 20.5 °F 17% 30.10 in 10.0 mi NW 10.4 mph - N/A   Clear
3:55 PM 66.4 °F - 21.2 °F 18% 30.10 in 10.0 mi WNW 11.5 mph - N/A   Clear
4:15 PM 65.3 °F - 21.2 °F 19% 30.10 in 10.0 mi West 12.7 mph - N/A   Clear
4:35 PM 64.0 °F - 20.8 °F 19% 30.10 in 10.0 mi West 10.4 mph - N/A   Clear
4:55 PM 61.7 °F - 21.7 °F 22% 30.11 in 10.0 mi WNW 9.2 mph - N/A   Clear
5:15 PM 59.2 °F - 22.3 °F 24% 30.12 in 10.0 mi WNW 6.9 mph - N/A   Clear
5:35 PM 56.1 °F - 22.1 °F 27% 30.12 in 10.0 mi NW 8.1 mph - N/A   Clear
5:55 PM 54.0 °F - 22.3 °F 29% 30.13 in 10.0 mi NW 9.2 mph - N/A   Clear
6:15 PM 52.9 °F - 22.8 °F 31% 30.13 in 10.0 mi NNW 9.2 mph - N/A   Clear
6:35 PM 51.3 °F - 23.0 °F 33% 30.13 in 10.0 mi NNW 11.5 mph - N/A   Clear
6:55 PM 50.2 °F - 23.0 °F 35% 30.13 in 10.0 mi NNW 8.1 mph - N/A   Clear
7:15 PM 46.2 °F 42.2 °F 22.8 °F 40% 30.13 in 10.0 mi NNW 8.1 mph - N/A   Clear
7:35 PM 51.4 °F - 23.5 °F 34% 30.14 in 10.0 mi NNW 11.5 mph - N/A   Clear
7:55 PM 49.5 °F - 23.0 °F 35% 30.14 in 10.0 mi NNW 11.5 mph - N/A   Clear
8:15 PM 48.2 °F - 23.0 °F 37% 30.14 in 10.0 mi NNW 11.5 mph - N/A   Clear
8:35 PM 49.1 °F - 23.0 °F 36% 30.14 in 10.0 mi North 12.7 mph - N/A   Clear
8:55 PM 49.6 °F - 23.0 °F 35% 30.15 in 10.0 mi NNW 12.7 mph - N/A   Clear
9:15 PM 47.8 °F - 22.6 °F 37% 30.14 in 10.0 mi NNW 13.8 mph - N/A   Clear
9:35 PM 48.2 °F - 23.0 °F 37% 30.15 in 10.0 mi NNW 12.7 mph - N/A   Scattered Clouds
9:55 PM 47.5 °F - 22.8 °F 38% 30.15 in 10.0 mi NW 10.4 mph - N/A   Mostly Cloudy
10:15 PM 46.9 °F - 23.0 °F 39% 30.15 in 10.0 mi NW 11.5 mph - N/A   Overcast
10:35 PM 46.9 °F - 22.8 °F 39% 30.15 in 10.0 mi NW 11.5 mph - N/A   Overcast
10:55 PM 46.8 °F - 23.0 °F 39% 30.15 in 10.0 mi NW 12.7 mph - N/A   Mostly Cloudy
11:15 PM 51.3 °F - 23.0 °F 33% 30.16 in 10.0 mi NW 16.1 mph - N/A   Mostly Cloudy
11:35 PM 49.5 °F - 22.8 °F 35% 30.16 in 10.0 mi NW 11.5 mph - N/A   Mostly Cloudy
11:55 PM 48.0 °F - 23.2 °F 38% 30.16 in 10.0 mi NW 12.7 mph - N/A   Scattered Clouds